Time,TemperatureF,DewpointF,PressureIn,WindDirection,WindDirectionDegrees,WindSpeedMPH,WindSpeedGustMPH,Humidity,HourlyPrecipIn,Conditions,Clouds,dailyrainin,SoftwareType,DateUTC
2013-10-01 00:03:00,63.0,31.1,30.00,West,271,1.0,3.0,30,0.00,,,0.00,meteohub,2013-10-01 06:03:00,
2013-10-01 00:09:00,62.8,30.9,30.01,West,270,0.0,2.0,30,0.00,,,0.00,meteohub,2013-10-01 06:09:00,
2013-10-01 00:14:00,62.8,30.9,30.01,West,270,3.0,4.0,30,0.00,,,0.00,meteohub,2013-10-01 06:14:00,
2013-10-01 00:19:00,62.4,30.6,30.01,SW,227,1.0,4.0,30,0.00,,,0.00,meteohub,2013-10-01 06:19:00,
2013-10-01 00:24:00,62.4,30.6,30.01,SW,227,1.0,6.0,30,0.00,,,0.00,meteohub,2013-10-01 06:24:00,
2013-10-01 00:29:00,63.0,30.2,30.01,SW,227,0.0,6.0,29,0.00,,,0.00,meteohub,2013-10-01 06:29:00,
2013-10-01 00:34:00,63.0,30.2,30.01,SW,227,1.0,5.0,29,0.00,,,0.00,meteohub,2013-10-01 06:34:00,
2013-10-01 00:39:00,63.0,31.1,30.01,SW,227,0.0,3.0,30,0.00,,,0.00,meteohub,2013-10-01 06:39:00,
2013-10-01 00:45:00,63.0,30.2,30.01,WSW,242,2.0,3.0,29,0.00,,,0.00,meteohub,2013-10-01 06:45:00,
2013-10-01 00:51:00,63.1,30.4,30.01,WSW,242,3.0,4.0,29,0.00,,,0.00,meteohub,2013-10-01 06:51:00,
2013-10-01 00:56:00,63.1,29.5,30.01,WSW,241,3.0,4.0,28,0.00,,,0.00,meteohub,2013-10-01 06:56:00,
2013-10-01 01:01:00,62.8,30.0,30.01,WSW,239,2.0,6.0,29,0.00,,,0.00,meteohub,2013-10-01 07:01:00,
2013-10-01 01:06:00,62.1,30.2,30.01,SW,234,4.0,6.0,30,0.00,,,0.00,meteohub,2013-10-01 07:06:00,
2013-10-01 01:11:00,61.5,29.8,30.01,SW,231,1.0,6.0,30,0.00,,,0.00,meteohub,2013-10-01 07:11:00,
2013-10-01 01:17:00,61.3,30.4,30.01,SW,229,2.0,6.0,31,0.00,,,0.00,meteohub,2013-10-01 07:17:00,
2013-10-01 01:22:00,61.0,30.2,30.02,SW,229,0.0,6.0,31,0.00,,,0.00,meteohub,2013-10-01 07:22:00,
2013-10-01 01:28:00,61.0,30.2,30.01,SW,229,3.0,6.0,31,0.00,,,0.00,meteohub,2013-10-01 07:28:00,
2013-10-01 01:33:00,61.3,29.7,30.02,SW,229,0.0,4.0,30,0.00,,,0.00,meteohub,2013-10-01 07:33:00,
2013-10-01 01:38:00,61.5,29.8,30.02,SW,229,0.0,4.0,30,0.00,,,0.00,meteohub,2013-10-01 07:38:00,
2013-10-01 01:43:00,61.2,30.2,30.01,SW,229,0.0,3.0,31,0.00,,,0.00,meteohub,2013-10-01 07:43:00,
2013-10-01 01:48:00,60.4,30.4,30.01,SW,229,2.0,3.0,32,0.00,,,0.00,meteohub,2013-10-01 07:48:00,
2013-10-01 01:53:00,59.7,30.6,30.02,WNW,286,0.0,3.0,33,0.00,,,0.00,meteohub,2013-10-01 07:53:00,
2013-10-01 02:00:00,60.1,32.4,30.02,NNE,19,0.0,5.0,35,0.00,,,0.00,meteohub,2013-10-01 08:00:00,
2013-10-01 02:05:00,59.4,31.6,30.02,ESE,119,0.0,5.0,35,0.00,,,0.00,meteohub,2013-10-01 08:05:00,
2013-10-01 02:10:00,59.4,31.6,30.01,SSE,160,0.0,5.0,35,0.00,,,0.00,meteohub,2013-10-01 08:10:00,
2013-10-01 02:15:00,59.5,31.1,30.02,SE,146,2.0,4.0,34,0.00,,,0.00,meteohub,2013-10-01 08:15:00,
2013-10-01 02:21:00,59.7,31.3,30.01,SE,142,1.0,4.0,34,0.00,,,0.00,meteohub,2013-10-01 08:21:00,
2013-10-01 02:26:00,59.5,31.1,30.01,SE,142,0.0,3.0,34,0.00,,,0.00,meteohub,2013-10-01 08:26:00,
2013-10-01 02:32:00,59.5,31.8,30.01,SE,142,0.0,3.0,35,0.00,,,0.00,meteohub,2013-10-01 08:32:00,
2013-10-01 02:37:00,59.4,31.6,30.01,SE,144,3.0,3.0,35,0.00,,,0.00,meteohub,2013-10-01 08:37:00,
2013-10-01 02:42:00,59.2,32.2,30.01,South,169,3.0,3.0,36,0.00,,,0.00,meteohub,2013-10-01 08:42:00,
2013-10-01 02:48:00,58.8,32.0,30.01,South,169,0.0,4.0,36,0.00,,,0.00,meteohub,2013-10-01 08:48:00,
2013-10-01 02:53:00,58.6,31.8,30.01,South,169,0.0,4.0,36,0.00,,,0.00,meteohub,2013-10-01 08:53:00,
2013-10-01 02:59:00,58.5,31.6,30.01,South,169,0.0,3.0,36,0.00,,,0.00,meteohub,2013-10-01 08:59:00,
2013-10-01 03:04:00,58.5,31.6,30.01,SSW,202,4.0,4.0,36,0.00,,,0.00,meteohub,2013-10-01 09:04:00,
2013-10-01 03:09:00,58.1,32.0,30.01,SW,223,4.0,5.0,37,0.00,,,0.00,meteohub,2013-10-01 09:09:00,
2013-10-01 03:14:00,58.6,31.1,30.01,SW,227,2.0,5.0,35,0.00,,,0.00,meteohub,2013-10-01 09:14:00,
2013-10-01 03:19:00,58.6,31.1,30.01,SW,227,3.0,6.0,35,0.00,,,0.00,meteohub,2013-10-01 09:19:00,
2013-10-01 03:24:00,58.6,30.4,30.01,SW,227,2.0,6.0,34,0.00,,,0.00,meteohub,2013-10-01 09:24:00,
2013-10-01 03:30:00,58.8,30.6,30.01,SW,227,0.0,6.0,34,0.00,,,0.00,meteohub,2013-10-01 09:30:00,
2013-10-01 03:35:00,59.0,30.7,30.01,SW,227,0.0,5.0,34,0.00,,,0.00,meteohub,2013-10-01 09:35:00,
2013-10-01 03:40:00,59.2,30.0,30.01,SW,227,2.0,5.0,33,0.00,,,0.00,meteohub,2013-10-01 09:40:00,
2013-10-01 03:45:00,59.5,30.4,30.01,SW,217,5.0,6.0,33,0.00,,,0.00,meteohub,2013-10-01 09:45:00,
2013-10-01 03:50:00,60.3,30.2,30.01,SW,221,5.0,6.0,32,0.00,,,0.00,meteohub,2013-10-01 09:50:00,
2013-10-01 03:55:00,60.1,30.2,30.01,SW,220,5.0,8.0,32,0.00,,,0.00,meteohub,2013-10-01 09:55:00,
2013-10-01 04:00:00,59.7,29.8,30.01,SW,222,4.0,8.0,32,0.00,,,0.00,meteohub,2013-10-01 10:00:00,
2013-10-01 04:05:00,59.2,30.0,30.01,SW,225,3.0,7.0,33,0.00,,,0.00,meteohub,2013-10-01 10:05:00,
2013-10-01 04:10:00,58.8,29.8,30.01,SW,226,2.0,7.0,33,0.00,,,0.00,meteohub,2013-10-01 10:10:00,
2013-10-01 04:16:00,58.5,30.2,30.02,SW,217,6.0,7.0,34,0.00,,,0.00,meteohub,2013-10-01 10:16:00,
2013-10-01 04:21:00,58.3,30.0,30.02,SW,223,3.0,8.0,34,0.00,,,0.00,meteohub,2013-10-01 10:21:00,
2013-10-01 04:26:00,57.7,30.2,30.02,SW,224,2.0,8.0,35,0.00,,,0.00,meteohub,2013-10-01 10:26:00,
2013-10-01 04:31:00,57.4,30.0,30.02,SW,228,4.0,8.0,35,0.00,,,0.00,meteohub,2013-10-01 10:31:00,
2013-10-01 04:36:00,57.0,30.4,30.02,SW,231,4.0,6.0,36,0.00,,,0.00,meteohub,2013-10-01 10:36:00,
2013-10-01 04:41:00,57.0,30.4,30.02,SW,231,3.0,6.0,36,0.00,,,0.00,meteohub,2013-10-01 10:41:00,
2013-10-01 04:47:00,56.8,30.2,30.02,SW,223,0.0,6.0,36,0.00,,,0.00,meteohub,2013-10-01 10:47:00,
2013-10-01 04:52:00,56.7,30.7,30.03,SW,223,0.0,6.0,37,0.00,,,0.00,meteohub,2013-10-01 10:52:00,
2013-10-01 04:57:00,56.3,30.4,30.03,SW,223,2.0,6.0,37,0.00,,,0.00,meteohub,2013-10-01 10:57:00,
2013-10-01 05:02:00,55.8,30.6,30.03,SW,223,0.0,3.0,38,0.00,,,0.00,meteohub,2013-10-01 11:02:00,
2013-10-01 05:07:00,55.2,30.7,30.03,SW,223,0.0,3.0,39,0.00,,,0.00,meteohub,2013-10-01 11:07:00,
2013-10-01 05:12:00,55.0,30.6,30.03,SW,223,1.0,3.0,39,0.00,,,0.00,meteohub,2013-10-01 11:12:00,
2013-10-01 05:18:00,54.3,30.6,30.03,SW,223,0.0,3.0,40,0.00,,,0.00,meteohub,2013-10-01 11:18:00,
2013-10-01 05:24:00,54.1,30.9,30.04,SW,223,0.0,2.0,41,0.00,,,0.00,meteohub,2013-10-01 11:24:00,
2013-10-01 05:29:00,54.0,30.7,30.04,SW,223,0.0,2.0,41,0.00,,,0.00,meteohub,2013-10-01 11:29:00,
2013-10-01 05:34:00,53.8,31.3,30.04,SW,223,0.0,2.0,42,0.00,,,0.00,meteohub,2013-10-01 11:34:00,
2013-10-01 05:39:00,53.6,31.1,30.04,SW,223,0.0,2.0,42,0.00,,,0.00,meteohub,2013-10-01 11:39:00,
2013-10-01 05:44:00,53.4,30.9,30.04,SW,223,0.0,2.0,42,0.00,,,0.00,meteohub,2013-10-01 11:44:00,
2013-10-01 05:49:00,53.6,31.1,30.04,SW,223,0.0,1.0,42,0.00,,,0.00,meteohub,2013-10-01 11:49:00,
2013-10-01 05:55:00,53.6,31.1,30.04,SW,223,1.0,1.0,42,0.00,,,0.00,meteohub,2013-10-01 11:55:00,
2013-10-01 06:00:00,54.1,31.5,30.04,SW,223,0.0,2.0,42,0.00,,,0.00,meteohub,2013-10-01 12:00:00,
2013-10-01 06:05:00,54.5,31.3,30.04,SW,223,0.0,2.0,41,0.00,,,0.00,meteohub,2013-10-01 12:05:00,
2013-10-01 06:10:00,54.7,31.5,30.04,SW,223,0.0,3.0,41,0.00,,,0.00,meteohub,2013-10-01 12:10:00,
2013-10-01 06:15:00,54.9,30.9,30.04,SW,223,0.0,3.0,40,0.00,,,0.00,meteohub,2013-10-01 12:15:00,
2013-10-01 06:20:00,54.7,31.5,30.04,SW,223,0.0,1.0,41,0.00,,,0.00,meteohub,2013-10-01 12:20:00,
2013-10-01 06:25:00,54.3,31.1,30.05,SW,223,0.0,3.0,41,0.00,,,0.00,meteohub,2013-10-01 12:25:00,
2013-10-01 06:30:00,54.1,30.9,30.04,SW,223,0.0,3.0,41,0.00,,,0.00,meteohub,2013-10-01 12:30:00,
2013-10-01 06:35:00,54.1,30.9,30.05,SW,223,0.0,3.0,41,0.00,,,0.00,meteohub,2013-10-01 12:35:00,
2013-10-01 06:40:00,54.0,32.5,30.05,SW,223,1.0,2.0,44,0.00,,,0.00,meteohub,2013-10-01 12:40:00,
2013-10-01 06:46:00,52.7,33.1,30.05,SW,223,0.0,2.0,47,0.00,,,0.00,meteohub,2013-10-01 12:46:00,
2013-10-01 06:51:00,52.3,32.7,30.05,SW,223,1.0,2.0,47,0.00,,,0.00,meteohub,2013-10-01 12:51:00,
2013-10-01 06:56:00,52.7,32.5,30.05,SW,223,2.0,4.0,46,0.00,,,0.00,meteohub,2013-10-01 12:56:00,
2013-10-01 07:01:00,53.2,32.4,30.05,SW,223,0.0,4.0,45,0.00,,,0.00,meteohub,2013-10-01 13:01:00,
2013-10-01 07:06:00,53.6,32.2,30.05,SW,223,0.0,4.0,44,0.00,,,0.00,meteohub,2013-10-01 13:06:00,
2013-10-01 07:11:00,53.8,32.4,30.06,SW,223,0.0,3.0,44,0.00,,,0.00,meteohub,2013-10-01 13:11:00,
2013-10-01 07:17:00,53.8,32.4,30.06,SW,223,1.0,2.0,44,0.00,,,0.00,meteohub,2013-10-01 13:17:00,
2013-10-01 07:22:00,54.0,32.0,30.06,SW,223,0.0,2.0,43,0.00,,,0.00,meteohub,2013-10-01 13:22:00,
2013-10-01 07:27:00,54.3,32.4,30.06,SW,223,0.0,2.0,43,0.00,,,0.00,meteohub,2013-10-01 13:27:00,
2013-10-01 07:32:00,54.9,32.2,30.06,SW,223,0.0,2.0,42,0.00,,,0.00,meteohub,2013-10-01 13:32:00,
2013-10-01 07:37:00,55.2,33.1,30.06,SW,223,0.0,0.0,43,0.00,,,0.00,meteohub,2013-10-01 13:37:00,
2013-10-01 07:42:00,55.6,34.0,30.06,SW,223,0.0,0.0,44,0.00,,,0.00,meteohub,2013-10-01 13:42:00,
2013-10-01 07:47:00,54.7,35.4,30.07,SW,223,0.0,1.0,48,0.00,,,0.00,meteohub,2013-10-01 13:47:00,
2013-10-01 07:52:00,54.9,35.1,30.07,SW,223,0.0,1.0,47,0.00,,,0.00,meteohub,2013-10-01 13:52:00,
2013-10-01 07:57:00,55.8,34.7,30.07,SW,223,0.0,1.0,45,0.00,,,0.00,meteohub,2013-10-01 13:57:00,
2013-10-01 08:04:00,56.7,35.1,30.07,SW,223,0.0,1.0,44,0.00,,,0.00,meteohub,2013-10-01 14:04:00,
2013-10-01 08:09:00,57.2,34.9,30.07,SW,223,0.0,1.0,43,0.00,,,0.00,meteohub,2013-10-01 14:09:00,
2013-10-01 08:14:00,57.9,34.9,30.07,SW,227,0.0,1.0,42,0.00,,,0.00,meteohub,2013-10-01 14:14:00,
2013-10-01 08:19:00,58.6,34.3,30.07,SW,227,0.0,4.0,40,0.00,,,0.00,meteohub,2013-10-01 14:19:00,
2013-10-01 08:24:00,59.7,34.0,30.07,SW,227,1.0,4.0,38,0.00,,,0.00,meteohub,2013-10-01 14:24:00,
2013-10-01 08:29:00,60.1,33.1,30.07,SW,227,0.0,4.0,36,0.00,,,0.00,meteohub,2013-10-01 14:29:00,
2013-10-01 08:35:00,60.6,33.4,30.07,SW,227,0.0,2.0,36,0.00,,,0.00,meteohub,2013-10-01 14:35:00,
2013-10-01 08:40:00,61.3,33.4,30.07,SW,227,0.0,3.0,35,0.00,,,0.00,meteohub,2013-10-01 14:40:00,
2013-10-01 08:45:00,62.4,32.9,30.07,SW,227,1.0,3.0,33,0.00,,,0.00,meteohub,2013-10-01 14:45:00,
2013-10-01 08:50:00,63.1,32.7,30.08,SW,227,1.0,3.0,32,0.00,,,0.00,meteohub,2013-10-01 14:50:00,
2013-10-01 08:55:00,63.7,32.5,30.08,SW,232,1.0,3.0,31,0.00,,,0.00,meteohub,2013-10-01 14:55:00,
2013-10-01 09:00:00,64.8,34.2,30.08,WSW,237,0.0,3.0,32,0.00,,,0.00,meteohub,2013-10-01 15:00:00,
2013-10-01 09:05:00,65.7,34.2,30.08,WSW,238,2.0,3.0,31,0.00,,,0.00,meteohub,2013-10-01 15:05:00,
2013-10-01 09:11:00,65.8,33.6,30.08,WSW,238,0.0,3.0,30,0.00,,,0.00,meteohub,2013-10-01 15:11:00,
2013-10-01 09:16:00,66.2,34.7,30.08,WSW,238,1.0,3.0,31,0.00,,,0.00,meteohub,2013-10-01 15:16:00,
2013-10-01 09:21:00,66.9,34.5,30.08,West,279,4.0,4.0,30,0.00,,,0.00,meteohub,2013-10-01 15:21:00,
2013-10-01 09:26:00,67.1,34.7,30.08,NW,309,1.0,5.0,30,0.00,,,0.00,meteohub,2013-10-01 15:26:00,
2013-10-01 09:31:00,67.6,34.2,30.09,NW,309,2.0,5.0,29,0.00,,,0.00,meteohub,2013-10-01 15:31:00,
2013-10-01 09:36:00,68.7,35.2,30.09,NW,322,3.0,5.0,29,0.00,,,0.00,meteohub,2013-10-01 15:36:00,
2013-10-01 09:42:00,69.1,34.5,30.09,NNW,341,1.0,4.0,28,0.00,,,0.00,meteohub,2013-10-01 15:42:00,
2013-10-01 09:47:00,69.4,34.9,30.09,NNW,341,2.0,5.0,28,0.00,,,0.00,meteohub,2013-10-01 15:47:00,
2013-10-01 09:52:00,69.8,35.2,30.09,North,350,3.0,5.0,28,0.00,,,0.00,meteohub,2013-10-01 15:52:00,
2013-10-01 09:57:00,70.2,34.7,30.09,NNE,13,4.0,5.0,27,0.00,,,0.00,meteohub,2013-10-01 15:57:00,
2013-10-01 10:02:00,70.7,35.1,30.09,NNE,30,1.0,5.0,27,0.00,,,0.00,meteohub,2013-10-01 16:02:00,
2013-10-01 10:07:00,71.1,37.2,30.09,NNE,26,3.0,7.0,29,0.00,,,0.00,meteohub,2013-10-01 16:07:00,
2013-10-01 10:12:00,71.4,38.3,30.09,NE,43,2.0,7.0,30,0.00,,,0.00,meteohub,2013-10-01 16:12:00,
2013-10-01 10:17:00,71.6,36.7,30.09,NE,40,3.0,7.0,28,0.00,,,0.00,meteohub,2013-10-01 16:17:00,
2013-10-01 10:22:00,72.0,37.0,30.09,NE,45,0.0,7.0,28,0.00,,,0.00,meteohub,2013-10-01 16:22:00,
2013-10-01 10:28:00,72.1,37.2,30.09,NE,45,2.0,7.0,28,0.00,,,0.00,meteohub,2013-10-01 16:28:00,
2013-10-01 10:31:00,73.0,37.9,30.09,ENE,61,4.0,4.0,28,0.00,,,0.00,meteohub,2013-10-01 16:31:00,
2013-10-01 10:36:00,73.6,37.6,30.10,ENE,61,2.0,8.0,27,0.00,,,0.00,meteohub,2013-10-01 16:36:00,
2013-10-01 10:42:00,73.8,36.7,30.09,ENE,62,4.0,8.0,26,0.00,,,0.00,meteohub,2013-10-01 16:42:00,
2013-10-01 10:47:00,73.8,36.7,30.09,ENE,62,1.0,8.0,26,0.00,,,0.00,meteohub,2013-10-01 16:47:00,
2013-10-01 10:52:00,73.8,36.7,30.09,ENE,62,1.0,5.0,26,0.00,,,0.00,meteohub,2013-10-01 16:52:00,
2013-10-01 10:57:00,74.8,36.7,30.09,ENE,62,0.0,4.0,25,0.00,,,0.00,meteohub,2013-10-01 16:57:00,
2013-10-01 11:02:00,74.8,36.7,30.09,ENE,62,0.0,4.0,25,0.00,,,0.00,meteohub,2013-10-01 17:02:00,
2013-10-01 11:07:00,74.8,35.6,30.09,ENE,62,0.0,4.0,24,0.00,,,0.00,meteohub,2013-10-01 17:07:00,
2013-10-01 11:12:00,76.3,37.9,30.09,ENE,62,0.0,2.0,25,0.00,,,0.00,meteohub,2013-10-01 17:12:00,
2013-10-01 11:18:00,77.2,37.6,30.09,ENE,62,2.0,2.0,24,0.00,,,0.00,meteohub,2013-10-01 17:18:00,
2013-10-01 11:23:00,77.4,37.8,30.09,ENE,63,2.0,3.0,24,0.00,,,0.00,meteohub,2013-10-01 17:23:00,
2013-10-01 11:28:00,77.7,37.0,30.09,ENE,63,1.0,3.0,23,0.00,,,0.00,meteohub,2013-10-01 17:28:00,
2013-10-01 11:33:00,78.4,38.7,30.09,ENE,63,2.0,4.0,24,0.00,,,0.00,meteohub,2013-10-01 17:33:00,
2013-10-01 11:38:00,78.3,38.5,30.09,ENE,62,0.0,4.0,24,0.00,,,0.00,meteohub,2013-10-01 17:38:00,
2013-10-01 11:43:00,78.4,38.7,30.08,ENE,62,0.0,4.0,24,0.00,,,0.00,meteohub,2013-10-01 17:43:00,
2013-10-01 11:49:00,79.2,38.1,30.08,NE,45,0.0,4.0,23,0.00,,,0.00,meteohub,2013-10-01 17:49:00,
2013-10-01 11:54:00,79.3,37.2,30.08,NE,45,0.0,7.0,22,0.00,,,0.00,meteohub,2013-10-01 17:54:00,
2013-10-01 12:00:00,81.0,38.5,30.08,NE,45,2.0,7.0,22,0.00,,,0.00,meteohub,2013-10-01 18:00:00,
2013-10-01 12:05:00,81.1,38.7,30.07,East,101,1.0,4.0,22,0.00,,,0.00,meteohub,2013-10-01 18:05:00,
2013-10-01 12:11:00,81.9,39.2,30.07,East,98,2.0,7.0,22,0.00,,,0.00,meteohub,2013-10-01 18:11:00,
2013-10-01 12:16:00,82.2,39.6,30.07,East,98,3.0,7.0,22,0.00,,,0.00,meteohub,2013-10-01 18:16:00,
2013-10-01 12:21:00,82.0,39.4,30.07,East,101,2.0,7.0,22,0.00,,,0.00,meteohub,2013-10-01 18:21:00,
2013-10-01 12:26:00,82.4,38.5,30.07,ENE,72,3.0,8.0,21,0.00,,,0.00,meteohub,2013-10-01 18:26:00,
2013-10-01 12:31:00,83.1,39.2,30.06,East,84,8.0,11.0,21,0.00,,,0.00,meteohub,2013-10-01 18:31:00,
2013-10-01 12:36:00,83.3,38.1,30.06,East,87,5.0,11.0,20,0.00,,,0.00,meteohub,2013-10-01 18:36:00,
2013-10-01 12:41:00,83.3,36.7,30.06,NW,315,0.0,9.0,19,0.00,,,0.00,meteohub,2013-10-01 18:41:00,
2013-10-01 12:47:00,83.8,38.5,30.06,West,278,5.0,8.0,20,0.00,,,0.00,meteohub,2013-10-01 18:47:00,
2013-10-01 12:52:00,86.0,27.5,30.05,NW,322,10.0,10.0,12,0.00,,,0.00,meteohub,2013-10-01 18:52:00,
2013-10-01 12:58:00,86.5,23.5,30.05,WNW,294,7.0,15.0,10,0.00,,,0.00,meteohub,2013-10-01 18:58:00,
2013-10-01 13:03:00,87.1,26.2,30.05,West,275,9.0,15.0,11,0.00,,,0.00,meteohub,2013-10-01 19:03:00,
2013-10-01 13:08:00,87.6,28.8,30.05,NW,313,7.0,14.0,12,0.00,,,0.00,meteohub,2013-10-01 19:08:00,
2013-10-01 13:13:00,88.0,27.0,30.04,WSW,242,8.0,14.0,11,0.00,,,0.00,meteohub,2013-10-01 19:13:00,
2013-10-01 13:18:00,87.4,26.4,30.04,WNW,297,7.0,14.0,11,0.00,,,0.00,meteohub,2013-10-01 19:18:00,
2013-10-01 13:24:00,87.8,26.8,30.04,WNW,289,14.0,14.0,11,0.00,,,0.00,meteohub,2013-10-01 19:24:00,
2013-10-01 13:29:00,88.0,27.0,30.04,West,267,8.0,16.0,11,0.00,,,0.00,meteohub,2013-10-01 19:29:00,
2013-10-01 13:34:00,88.0,24.6,30.04,NW,307,11.0,16.0,10,0.00,,,0.00,meteohub,2013-10-01 19:34:00,
2013-10-01 13:39:00,87.4,21.7,30.03,NW,321,11.0,16.0,9,0.00,,,0.00,meteohub,2013-10-01 19:39:00,
2013-10-01 13:44:00,87.6,24.3,30.03,West,277,7.0,17.0,10,0.00,,,0.00,meteohub,2013-10-01 19:44:00,
2013-10-01 13:49:00,88.2,22.3,30.03,WNW,288,9.0,17.0,9,0.00,,,0.00,meteohub,2013-10-01 19:49:00,
2013-10-01 13:54:00,88.3,19.6,30.03,West,272,10.0,17.0,8,0.00,,,0.00,meteohub,2013-10-01 19:54:00,
2013-10-01 13:59:00,88.3,12.9,30.02,WNW,288,11.0,17.0,6,0.00,,,0.00,meteohub,2013-10-01 19:59:00,
2013-10-01 14:04:00,88.5,9.0,30.02,NW,323,11.0,17.0,5,0.00,,,0.00,meteohub,2013-10-01 20:04:00,
2013-10-01 14:09:00,88.2,8.8,30.02,NW,320,7.0,19.0,5,0.00,,,0.00,meteohub,2013-10-01 20:09:00,
2013-10-01 14:14:00,88.3,8.8,30.02,WNW,299,8.0,19.0,5,0.00,,,0.00,meteohub,2013-10-01 20:14:00,
2013-10-01 14:20:00,88.0,8.6,30.02,WNW,294,15.0,19.0,5,0.00,,,0.00,meteohub,2013-10-01 20:20:00,
2013-10-01 14:25:00,88.3,12.9,30.01,NW,319,12.0,16.0,6,0.00,,,0.00,meteohub,2013-10-01 20:25:00,
2013-10-01 14:30:00,88.9,13.3,30.01,WNW,295,12.0,17.0,6,0.00,,,0.00,meteohub,2013-10-01 20:30:00,
2013-10-01 14:35:00,88.5,13.1,30.01,NW,321,9.0,17.0,6,0.00,,,0.00,meteohub,2013-10-01 20:35:00,
2013-10-01 14:40:00,88.5,9.0,30.01,WNW,299,13.0,17.0,5,0.00,,,0.00,meteohub,2013-10-01 20:40:00,
2013-10-01 14:45:00,88.5,13.1,30.01,NW,315,8.0,19.0,6,0.00,,,0.00,meteohub,2013-10-01 20:45:00,
2013-10-01 14:50:00,88.9,13.3,30.01,West,280,15.0,19.0,6,0.00,,,0.00,meteohub,2013-10-01 20:50:00,
2013-10-01 14:56:00,88.5,16.7,30.01,NNW,327,8.0,16.0,7,0.00,,,0.00,meteohub,2013-10-01 20:56:00,
2013-10-01 15:01:00,88.3,16.5,30.01,West,281,7.0,16.0,7,0.00,,,0.00,meteohub,2013-10-01 21:01:00,
2013-10-01 15:06:00,88.5,16.7,30.01,WNW,290,12.0,18.0,7,0.00,,,0.00,meteohub,2013-10-01 21:06:00,
2013-10-01 15:11:00,88.3,12.9,30.01,WNW,296,11.0,18.0,6,0.00,,,0.00,meteohub,2013-10-01 21:11:00,
2013-10-01 15:16:00,88.3,16.5,30.01,NW,319,12.0,18.0,7,0.00,,,0.00,meteohub,2013-10-01 21:16:00,
2013-10-01 15:21:00,88.5,16.7,30.00,WNW,294,6.0,17.0,7,0.00,,,0.00,meteohub,2013-10-01 21:21:00,
2013-10-01 15:26:00,88.9,19.9,30.00,West,275,7.0,15.0,8,0.00,,,0.00,meteohub,2013-10-01 21:26:00,
2013-10-01 15:31:00,88.9,16.9,30.00,WNW,300,13.0,15.0,7,0.00,,,0.00,meteohub,2013-10-01 21:31:00,
2013-10-01 15:36:00,88.3,16.5,30.00,West,275,5.0,15.0,7,0.00,,,0.00,meteohub,2013-10-01 21:36:00,
2013-10-01 15:41:00,88.5,19.8,30.00,WNW,290,6.0,15.0,8,0.00,,,0.00,meteohub,2013-10-01 21:41:00,
2013-10-01 15:47:00,88.9,16.9,30.00,NNW,327,9.0,16.0,7,0.00,,,0.00,meteohub,2013-10-01 21:47:00,
2013-10-01 15:52:00,88.7,13.3,30.00,NNW,333,10.0,16.0,6,0.00,,,0.00,meteohub,2013-10-01 21:52:00,
2013-10-01 15:57:00,89.1,17.1,29.99,NW,313,9.0,16.0,7,0.00,,,0.00,meteohub,2013-10-01 21:57:00,
2013-10-01 16:02:00,89.1,17.1,29.99,WNW,292,9.0,14.0,7,0.00,,,0.00,meteohub,2013-10-01 22:02:00,
2013-10-01 16:07:00,89.1,17.1,29.99,NW,321,7.0,14.0,7,0.00,,,0.00,meteohub,2013-10-01 22:07:00,
2013-10-01 16:12:00,88.7,16.7,29.99,WSW,257,5.0,14.0,7,0.00,,,0.00,meteohub,2013-10-01 22:12:00,
2013-10-01 16:17:00,88.9,19.9,29.99,West,259,8.0,15.0,8,0.00,,,0.00,meteohub,2013-10-01 22:17:00,
2013-10-01 16:23:00,89.1,20.1,29.99,NW,313,8.0,15.0,8,0.00,,,0.00,meteohub,2013-10-01 22:23:00,
2013-10-01 16:28:00,88.7,19.9,29.99,West,269,6.0,15.0,8,0.00,,,0.00,meteohub,2013-10-01 22:28:00,
2013-10-01 16:33:00,88.9,19.9,29.99,SW,219,9.0,11.0,8,0.00,,,0.00,meteohub,2013-10-01 22:33:00,
2013-10-01 16:38:00,88.9,22.8,29.99,WNW,283,9.0,11.0,9,0.00,,,0.00,meteohub,2013-10-01 22:38:00,
2013-10-01 16:43:00,88.7,22.6,29.99,WSW,246,10.0,14.0,9,0.00,,,0.00,meteohub,2013-10-01 22:43:00,
2013-10-01 16:48:00,88.3,22.3,29.99,West,259,2.0,14.0,9,0.00,,,0.00,meteohub,2013-10-01 22:48:00,
2013-10-01 16:54:00,88.5,22.5,29.98,WNW,286,10.0,12.0,9,0.00,,,0.00,meteohub,2013-10-01 22:54:00,
2013-10-01 16:59:00,88.5,22.5,29.99,West,275,8.0,13.0,9,0.00,,,0.00,meteohub,2013-10-01 22:59:00,
2013-10-01 17:04:00,88.3,19.6,29.99,West,271,6.0,13.0,8,0.00,,,0.00,meteohub,2013-10-01 23:04:00,
2013-10-01 17:09:00,88.3,19.6,29.99,WNW,302,7.0,13.0,8,0.00,,,0.00,meteohub,2013-10-01 23:09:00,
2013-10-01 17:14:00,88.2,19.4,29.99,West,268,10.0,13.0,8,0.00,,,0.00,meteohub,2013-10-01 23:14:00,
2013-10-01 17:19:00,88.2,19.4,29.99,West,269,13.0,13.0,8,0.00,,,0.00,meteohub,2013-10-01 23:19:00,
2013-10-01 17:24:00,88.0,19.4,29.99,West,266,6.0,14.0,8,0.00,,,0.00,meteohub,2013-10-01 23:24:00,
2013-10-01 17:26:00,87.8,19.2,29.99,West,265,7.0,14.0,8,0.00,,,0.00,meteohub,2013-10-01 23:26:00,
2013-10-01 17:31:00,87.6,19.0,29.99,West,267,8.0,14.0,8,0.00,,,0.00,meteohub,2013-10-01 23:31:00,
2013-10-01 17:32:00,87.6,19.0,29.99,West,265,11.0,14.0,8,0.00,,,0.00,meteohub,2013-10-01 23:32:00,
2013-10-01 17:37:00,87.4,18.9,29.99,West,274,8.0,14.0,8,0.00,,,0.00,meteohub,2013-10-01 23:37:00,
2013-10-01 17:42:00,87.4,18.9,29.99,West,263,6.0,14.0,8,0.00,,,0.00,meteohub,2013-10-01 23:42:00,
2013-10-01 17:47:00,87.3,18.9,29.99,WSW,257,7.0,14.0,8,0.00,,,0.00,meteohub,2013-10-01 23:47:00,
2013-10-01 17:52:00,86.7,21.2,29.99,WSW,241,11.0,13.0,9,0.00,,,0.00,meteohub,2013-10-01 23:52:00,
2013-10-01 17:57:00,86.5,21.0,29.99,West,273,11.0,14.0,9,0.00,,,0.00,meteohub,2013-10-01 23:57:00,
2013-10-01 18:02:00,86.4,20.8,29.99,WSW,252,8.0,14.0,9,0.00,,,0.00,meteohub,2013-10-02 00:02:00,
2013-10-01 18:07:00,86.2,20.7,29.99,WSW,251,9.0,14.0,9,0.00,,,0.00,meteohub,2013-10-02 00:07:00,
2013-10-01 18:12:00,85.6,22.8,29.99,West,271,8.0,13.0,10,0.00,,,0.00,meteohub,2013-10-02 00:12:00,
2013-10-01 18:17:00,85.3,22.6,29.99,West,267,6.0,12.0,10,0.00,,,0.00,meteohub,2013-10-02 00:17:00,
2013-10-01 18:22:00,84.9,22.3,29.99,WSW,248,7.0,11.0,10,0.00,,,0.00,meteohub,2013-10-02 00:22:00,
2013-10-01 18:27:00,84.4,21.9,29.99,WSW,254,7.0,11.0,10,0.00,,,0.00,meteohub,2013-10-02 00:27:00,
2013-10-01 18:32:00,83.8,23.7,29.99,West,267,5.0,10.0,11,0.00,,,0.00,meteohub,2013-10-02 00:32:00,
2013-10-01 18:37:00,83.1,25.3,29.99,WSW,241,4.0,10.0,12,0.00,,,0.00,meteohub,2013-10-02 00:37:00,
2013-10-01 18:42:00,82.4,26.6,29.99,WSW,256,4.0,8.0,13,0.00,,,0.00,meteohub,2013-10-02 00:42:00,
2013-10-01 18:48:00,81.3,25.7,29.99,WSW,251,5.0,8.0,13,0.00,,,0.00,meteohub,2013-10-02 00:48:00,
2013-10-01 18:53:00,80.8,27.1,29.99,WSW,245,4.0,7.0,14,0.00,,,0.00,meteohub,2013-10-02 00:53:00,
2013-10-01 18:58:00,80.1,26.6,29.99,West,259,5.0,7.0,14,0.00,,,0.00,meteohub,2013-10-02 00:58:00,
2013-10-01 19:03:00,79.3,27.7,30.00,WSW,252,4.0,8.0,15,0.00,,,0.00,meteohub,2013-10-02 01:03:00,
2013-10-01 19:08:00,78.8,27.3,30.00,WSW,240,6.0,8.0,15,0.00,,,0.00,meteohub,2013-10-02 01:08:00,
2013-10-01 19:13:00,78.3,26.8,30.00,WSW,257,3.0,8.0,15,0.00,,,0.00,meteohub,2013-10-02 01:13:00,
2013-10-01 19:18:00,77.7,26.4,30.00,West,262,5.0,7.0,15,0.00,,,0.00,meteohub,2013-10-02 01:18:00,
2013-10-01 19:23:00,77.4,26.1,30.00,WSW,245,5.0,7.0,15,0.00,,,0.00,meteohub,2013-10-02 01:23:00,
2013-10-01 19:28:00,77.2,25.9,30.00,WSW,241,8.0,8.0,15,0.00,,,0.00,meteohub,2013-10-02 01:28:00,
2013-10-01 19:33:00,76.6,25.5,30.00,WSW,249,4.0,8.0,15,0.00,,,0.00,meteohub,2013-10-02 01:33:00,
2013-10-01 19:38:00,76.3,26.8,30.00,WSW,246,5.0,8.0,16,0.00,,,0.00,meteohub,2013-10-02 01:38:00,
2013-10-01 19:44:00,75.9,25.0,30.00,WSW,246,6.0,8.0,15,0.00,,,0.00,meteohub,2013-10-02 01:44:00,
2013-10-01 19:49:00,75.9,25.0,30.01,West,265,5.0,8.0,15,0.00,,,0.00,meteohub,2013-10-02 01:49:00,
2013-10-01 19:54:00,75.9,26.4,30.01,WSW,257,3.0,8.0,16,0.00,,,0.00,meteohub,2013-10-02 01:54:00,
2013-10-01 19:59:00,75.9,26.4,30.01,West,269,7.0,8.0,16,0.00,,,0.00,meteohub,2013-10-02 01:59:00,
2013-10-01 20:04:00,75.7,26.4,30.01,West,261,5.0,9.0,16,0.00,,,0.00,meteohub,2013-10-02 02:04:00,
2013-10-01 20:09:00,75.7,26.4,30.01,West,259,4.0,9.0,16,0.00,,,0.00,meteohub,2013-10-02 02:09:00,
2013-10-01 20:14:00,75.4,27.5,30.01,West,273,3.0,9.0,17,0.00,,,0.00,meteohub,2013-10-02 02:14:00,
2013-10-01 20:19:00,74.7,27.0,30.01,West,273,3.0,8.0,17,0.00,,,0.00,meteohub,2013-10-02 02:19:00,
2013-10-01 20:24:00,74.1,27.9,30.01,West,279,2.0,8.0,18,0.00,,,0.00,meteohub,2013-10-02 02:24:00,
2013-10-01 20:29:00,73.4,27.3,30.01,WSW,257,6.0,8.0,18,0.00,,,0.00,meteohub,2013-10-02 02:29:00,
2013-10-01 20:34:00,73.2,27.1,30.01,West,273,6.0,8.0,18,0.00,,,0.00,meteohub,2013-10-02 02:34:00,
2013-10-01 20:39:00,73.0,27.0,30.01,West,279,4.0,9.0,18,0.00,,,0.00,meteohub,2013-10-02 02:39:00,
2013-10-01 20:44:00,73.0,27.0,30.02,West,278,3.0,9.0,18,0.00,,,0.00,meteohub,2013-10-02 02:44:00,
2013-10-01 20:49:00,73.0,27.0,30.02,WNW,286,5.0,9.0,18,0.00,,,0.00,meteohub,2013-10-02 02:49:00,
2013-10-01 20:54:00,73.0,27.0,30.02,West,272,4.0,7.0,18,0.00,,,0.00,meteohub,2013-10-02 02:54:00,
2013-10-01 20:59:00,72.9,27.0,30.02,West,273,5.0,7.0,18,0.00,,,0.00,meteohub,2013-10-02 02:59:00,
2013-10-01 21:04:00,72.7,26.8,30.02,West,278,3.0,7.0,18,0.00,,,0.00,meteohub,2013-10-02 03:04:00,
2013-10-01 21:09:00,72.1,27.7,30.02,West,276,2.0,7.0,19,0.00,,,0.00,meteohub,2013-10-02 03:09:00,
2013-10-01 21:15:00,71.4,27.0,30.02,West,279,3.0,7.0,19,0.00,,,0.00,meteohub,2013-10-02 03:15:00,
2013-10-01 21:20:00,71.1,28.0,30.02,West,279,2.0,7.0,20,0.00,,,0.00,meteohub,2013-10-02 03:20:00,
2013-10-01 21:25:00,70.3,27.3,30.02,West,279,2.0,6.0,20,0.00,,,0.00,meteohub,2013-10-02 03:25:00,
2013-10-01 21:30:00,70.2,28.4,30.02,West,279,0.0,6.0,21,0.00,,,0.00,meteohub,2013-10-02 03:30:00,
2013-10-01 21:35:00,70.0,28.2,30.03,West,279,0.0,4.0,21,0.00,,,0.00,meteohub,2013-10-02 03:35:00,
2013-10-01 21:40:00,69.6,27.9,30.03,West,279,0.0,3.0,21,0.00,,,0.00,meteohub,2013-10-02 03:40:00,
2013-10-01 21:45:00,69.3,27.7,30.03,West,279,0.0,3.0,21,0.00,,,0.00,meteohub,2013-10-02 03:45:00,
2013-10-01 21:50:00,69.1,28.6,30.03,West,279,0.0,1.0,22,0.00,,,0.00,meteohub,2013-10-02 03:50:00,
2013-10-01 21:55:00,68.5,28.2,30.03,West,279,1.0,1.0,22,0.00,,,0.00,meteohub,2013-10-02 03:55:00,
2013-10-01 22:00:00,68.5,28.2,30.03,West,279,1.0,3.0,22,0.00,,,0.00,meteohub,2013-10-02 04:00:00,
2013-10-01 22:01:00,68.4,28.0,30.03,West,279,0.0,3.0,22,0.00,,,0.00,meteohub,2013-10-02 04:01:00,
2013-10-01 22:02:00,68.4,28.0,30.03,West,279,0.0,3.0,22,0.00,,,0.00,meteohub,2013-10-02 04:02:00,
2013-10-01 22:03:00,68.4,28.0,30.03,West,279,0.0,3.0,22,0.00,,,0.00,meteohub,2013-10-02 04:03:00,
2013-10-01 22:08:00,68.2,28.9,30.03,West,279,0.0,3.0,23,0.00,,,0.00,meteohub,2013-10-02 04:08:00,
2013-10-01 22:12:00,66.7,32.5,30.04,West,279,0.0,2.0,28,0.00,,,0.00,meteohub,2013-10-02 04:12:00,
2013-10-01 22:14:00,65.5,32.4,30.04,West,279,0.0,2.0,29,0.00,,,0.00,meteohub,2013-10-02 04:14:00,
2013-10-01 22:19:00,64.2,31.3,30.04,West,279,0.0,2.0,29,0.00,,,0.00,meteohub,2013-10-02 04:19:00,
2013-10-01 22:25:00,64.2,31.3,30.04,West,279,0.0,1.0,29,0.00,,,0.00,meteohub,2013-10-02 04:25:00,
2013-10-01 22:30:00,64.6,31.6,30.04,West,279,0.0,0.0,29,0.00,,,0.00,meteohub,2013-10-02 04:30:00,
2013-10-01 22:35:00,64.9,31.1,30.04,West,279,0.0,1.0,28,0.00,,,0.00,meteohub,2013-10-02 04:35:00,
2013-10-01 22:40:00,65.7,30.7,30.04,West,279,0.0,1.0,27,0.00,,,0.00,meteohub,2013-10-02 04:40:00,
2013-10-01 22:45:00,65.5,29.7,30.04,West,279,0.0,2.0,26,0.00,,,0.00,meteohub,2013-10-02 04:45:00,
2013-10-01 22:51:00,65.5,29.7,30.04,West,279,2.0,2.0,26,0.00,,,0.00,meteohub,2013-10-02 04:51:00,
2013-10-01 22:56:00,65.1,30.4,30.04,West,279,1.0,2.0,27,0.00,,,0.00,meteohub,2013-10-02 04:56:00,
2013-10-01 23:01:00,64.9,29.3,30.04,West,279,0.0,3.0,26,0.00,,,0.00,meteohub,2013-10-02 05:01:00,
2013-10-01 23:06:00,64.8,30.0,30.04,West,279,1.0,3.0,27,0.00,,,0.00,meteohub,2013-10-02 05:06:00,
2013-10-01 23:11:00,64.8,29.1,30.04,West,279,0.0,3.0,26,0.00,,,0.00,meteohub,2013-10-02 05:11:00,
2013-10-01 23:16:00,64.8,29.1,30.04,West,275,1.0,4.0,26,0.00,,,0.00,meteohub,2013-10-02 05:16:00,
2013-10-01 23:21:00,64.8,29.1,30.04,West,275,0.0,4.0,26,0.00,,,0.00,meteohub,2013-10-02 05:21:00,
2013-10-01 23:26:00,64.6,29.8,30.04,West,275,0.0,4.0,27,0.00,,,0.00,meteohub,2013-10-02 05:26:00,
2013-10-01 23:32:00,64.2,30.4,30.04,West,275,0.0,2.0,28,0.00,,,0.00,meteohub,2013-10-02 05:32:00,
2013-10-01 23:37:00,64.0,30.2,30.04,West,275,0.0,2.0,28,0.00,,,0.00,meteohub,2013-10-02 05:37:00,
2013-10-01 23:42:00,64.0,30.2,30.03,West,275,1.0,1.0,28,0.00,,,0.00,meteohub,2013-10-02 05:42:00,
2013-10-01 23:47:00,63.9,30.2,30.04,West,275,0.0,1.0,28,0.00,,,0.00,meteohub,2013-10-02 05:47:00,
2013-10-01 23:52:00,63.9,30.2,30.04,West,275,0.0,2.0,28,0.00,,,0.00,meteohub,2013-10-02 05:52:00,
2013-10-01 23:57:00,64.0,31.1,30.04,West,275,0.0,2.0,29,0.00,,,0.00,meteohub,2013-10-02 05:57:00,